الصفحة الرئيسية
METAR-TAF:

METAR-TAF

مطار :

Antsiranana, مدغشقر

دائرة عرض: 12-21S, خط طول: 049-18E, ارتفاع: 114 متر

مراقبة الطقس الحالي

تاريخ ووقت الإصدار 9ساعات و 49 دقيقة قبل الساعة 15:00UTC
رياح هادئة
درجة الحرارة 26°درجة مئوية
الرطوبة 89%
ضغط
الرؤية: 1010 متر

METAR: FMNA 281500Z 00000KT 99 F020 S040 26/24 1010

زمن: 03:49 (00:49 UTC)

توقعات

تاريخ ووقت الإصدار 1ساعة و 49 دقيقة قبل الساعة 23:00UTC
التوقعات صالحة من29 الساعة 00 UTC إلى 29 الساعة 24 UTC
ريح 10 عقدة من الغرب
الرؤية: 9000 متر
غيوم متفرقة على ارتفاع 2000 قدم, مزنة ركامية.
غيوم مفككة على ارتفاع 4000 قدم
نظرية الاحتمالات 30% :
مؤقت
من 29 الساعة 00 UTC إلى 29 الساعة 06 UTC
الرؤية: 4500 متر
عاصفة رعدية, مطر
مؤقت
من 29 الساعة 12 UTC إلى 29 الساعة 20 UTC
الرؤية: 4500 متر
عاصفة رعدية, مطر

TAF: FMNA 282300Z 2900/2924 26010KT 9000 SCT020CB BKN040 PROB30 TEMPO 2900/2906 4500 TSRA TEMPO 2912/2920 4500 TSRA

أرصاد الطقس والتوقعات من أكثر من 4000 مطار (تقارير الطقس للمطار METAR والتنبؤ بالطقس بالمطارTAF).

المحطات المتاحة هي النقط الصفراء والحمراء على الخريطة.

حرك المؤشر فوق النقطة لمعرفة اسم المحطة.

ثم انقر لمعرفة أرصاد وتوقعات الطقس.

لتغيير الخارطة: اضغط على الأزرار الخضراء مع رمز الصليب الأسود للتكبير. على الزر الأخضر مع شرطة للتصغير، أو على الأسهم الخضراء للخرائط المجاورة.


METAR-TAF: